Aviation Digital Data Service (ADDS)

Output produced by METARs form (1610 UTC 12 February 2016)
found at http://aviationweather.gov/adds/metars/
 
KINT 121141Z 1212/1312 07007KT P6SM OVC060 
     TEMPO 1215/1218 6SM -SN SCT025 OVC045 
     FM122000 22005KT P6SM SCT100 
     FM130000 24005KT P6SM OVC050 
     FM130500 30009KT P6SM SCT050